Meteorología y climatología de Navarra
Datos de la estación - Meteo Navarra

Estación de Gorramendi GN

Altitud 1071 m.


Datos desde el 14/08/2019 hasta el 15/08/2019 en horario solar
Los datos son PROVISIONALES

Anterior Página 1 de 1 Siguiente Descargar: Formato para Excel 2000 o superior   Formato csv   Formato para OpenOffice Calc
Fecha Temperatura Humedad relativa Radiación global Insolación Precipitación Vel. viento 10 m Vel. viento 10 m Dir. viento 10 m
ºC % W/m² s l/m² m/s km/h º
14/08/2019 0:00 10.2 93 0.0 0 0.0 5.3 18.9 117
14/08/2019 0:10 10.1 94 0.0 0 0.0 5.2 18.5 113
14/08/2019 0:20 10.1 95 0.0 0 0.0 5.2 18.5 112
14/08/2019 0:30 10.0 95 0.0 0 0.0 4.6 16.6 116
14/08/2019 0:40 10.1 94 0.0 0 0.0 4.4 16.0 111
14/08/2019 0:50 10.0 94 0.0 0 0.0 4.6 16.5 115
14/08/2019 1:00 10.0 94 0.0 0 0.0 4.7 17.0 123
14/08/2019 1:10 10.0 94 0.0 0 0.0 4.7 17.0 126
14/08/2019 1:20 10.1 93 0.0 0 0.0 4.7 16.9 124
14/08/2019 1:30 10.2 93 0.0 0 0.0 4.6 16.5 128
14/08/2019 1:40 10.2 93 0.0 0 0.0 4.3 15.4 128
14/08/2019 1:50 10.3 91 0.0 0 0.0 4.3 15.5 122
14/08/2019 2:00 10.4 90 0.0 0 0.0 3.4 12.2 122
14/08/2019 2:10 10.7 88 0.0 0 0.0 2.6 9.3 127
14/08/2019 2:20 11.6 69 0.0 0 0.0 1.9 6.9 132
14/08/2019 2:30 13.1 53 0.0 0 0.0 2.0 7.1 137
14/08/2019 2:40 13.2 54 0.0 0 0.0 2.3 8.2 140
14/08/2019 2:50 13.1 54 0.0 0 0.0 2.9 10.5 138
14/08/2019 3:00 13.2 51 0.0 0 0.0 2.7 9.6 126
14/08/2019 3:10 13.4 47 0.0 0 0.0 2.7 9.9 129
14/08/2019 3:20 13.5 44 0.0 0 0.0 2.3 8.1 123
14/08/2019 3:30 13.8 40 0.0 0 0.0 1.7 6.0 122
14/08/2019 3:40 13.9 38 0.0 0 0.0 1.5 5.3 97
14/08/2019 3:50 13.4 45 0.0 0 0.0 1.1 4.1 91
14/08/2019 4:00 13.8 39 0.0 0 0.0 2.6 9.3 145
14/08/2019 4:10 14.1 37 0.0 0 0.0 2.8 10.1 144
14/08/2019 4:20 14.2 35 0.0 0 0.0 0.8 2.7 108
14/08/2019 4:30 14.3 33 0.0 0 0.0 1.4 5.0 142
14/08/2019 4:40 14.3 33 0.0 0 0.0 1.5 5.4 158
14/08/2019 4:50 14.3 32 0.0 0 0.0 1.4 4.9 187
14/08/2019 5:00 14.7 30 0.0 0 0.0 1.3 4.8 200
14/08/2019 5:10 14.6 33 0.0 0 0.0 1.3 4.6 213
14/08/2019 5:20 15.0 37 20.1 6 0.0 2.4 8.6 283
14/08/2019 5:30 15.3 38 42.4 600 0.0 3.1 11.1 316
14/08/2019 5:40 15.3 38 77.3 600 0.0 3.0 10.9 329
14/08/2019 5:50 15.1 36 96.2 600 0.0 2.5 9.1 307
14/08/2019 6:00 14.8 36 85.8 410 0.0 2.3 8.3 280
14/08/2019 6:10 15.0 36 77.7 216 0.0 2.3 8.2 287
14/08/2019 6:20 14.8 34 86.5 114 0.0 2.3 8.3 265
14/08/2019 6:30 14.5 35 156.3 454 0.0 2.7 9.8 260
14/08/2019 6:40 14.5 35 224.0 546 0.0 2.8 10.1 265
14/08/2019 6:50 14.5 35 275.4 600 0.0 3.0 10.9 267
14/08/2019 7:00 14.7 34 303.6 600 0.0 3.0 10.8 265
14/08/2019 7:10 14.8 36 335.4 600 0.0 3.1 11.3 262
14/08/2019 7:20 14.9 36 371.9 600 0.0 3.5 12.6 261
14/08/2019 7:30 14.9 35 412.4 600 0.0 3.8 13.7 258
14/08/2019 7:40 14.8 31 457.3 600 0.0 4.6 16.4 268
14/08/2019 7:50 14.6 33 437.2 578 0.0 4.3 15.4 285
14/08/2019 8:00 14.7 33 504.2 600 0.0 4.0 14.4 283
14/08/2019 8:10 14.7 33 535.7 600 0.0 4.4 16.0 282
14/08/2019 8:20 14.8 34 569.3 600 0.0 4.8 17.3 283
14/08/2019 8:30 15.0 35 579.0 600 0.0 5.8 20.9 286
14/08/2019 8:40 14.9 34 613.5 600 0.0 5.8 21.0 291
14/08/2019 8:50 15.0 35 664.1 600 0.0 6.1 22.0 287
14/08/2019 9:00 15.0 35 589.8 544 0.0 6.2 22.1 290
14/08/2019 9:10 15.1 38 710.2 600 0.0 6.2 22.3 291
14/08/2019 9:20 15.2 40 732.4 600 0.0 6.3 22.5 290
14/08/2019 9:30 15.4 42 755.4 600 0.0 6.1 21.9 295
14/08/2019 9:40 15.8 43 777.0 600 0.0 5.8 20.8 301
14/08/2019 9:50 15.9 45 796.5 600 0.0 5.5 19.8 307
14/08/2019 10:00 16.0 46 813.0 600 0.0 5.0 18.1 305
14/08/2019 10:10 16.1 49 832.0 600 0.0 4.7 16.8 309
14/08/2019 10:20 16.2 50 847.0 600 0.0 4.5 16.2 304
14/08/2019 10:30 16.2 53 862.0 600 0.0 4.0 14.3 304
14/08/2019 10:40 16.4 56 886.0 600 0.0 3.7 13.1 305
14/08/2019 10:50 16.7 57 887.0 600 0.0 3.2 11.4 302
14/08/2019 11:00 16.7 55 900.0 600 0.0 3.8 13.7 304
14/08/2019 11:10 16.9 56 907.0 600 0.0 4.3 15.4 315
14/08/2019 11:20 16.7 56 913.0 600 0.0 3.9 13.9 322
14/08/2019 11:30 16.8 57 918.0 600 0.0 4.2 15.2 329
14/08/2019 11:40 16.9 58 923.0 600 0.0 4.6 16.5 324
14/08/2019 11:50 17.1 58 926.0 600 0.0 4.2 15.0 329
14/08/2019 12:00 17.3 58 926.0 600 0.0 4.6 16.7 325
14/08/2019 12:10 17.7 59 926.0 600 0.0 4.6 16.5 322
14/08/2019 12:20 17.3 60 924.0 600 0.0 5.8 21.0 326
14/08/2019 12:30 17.4 60 922.0 600 0.0 5.2 18.7 327
14/08/2019 12:40 17.4 61 937.0 600 0.0 5.4 19.5 323
14/08/2019 12:50 17.6 61 877.0 600 0.0 4.9 17.7 328
14/08/2019 13:00 17.6 61 902.0 600 0.0 5.2 18.6 314
14/08/2019 13:10 17.7 61 888.0 600 0.0 4.3 15.4 326
14/08/2019 13:20 17.7 61 876.0 600 0.0 4.4 15.7 319
14/08/2019 13:30 17.9 61 864.0 600 0.0 5.0 18.0 318
14/08/2019 13:40 18.0 59 850.0 600 0.0 4.8 17.4 326
14/08/2019 13:50 18.4 58 835.0 600 0.0 4.7 16.9 317
14/08/2019 14:00 18.2 64 817.0 600 0.0 5.4 19.3 349
14/08/2019 14:10 17.6 68 797.5 600 0.0 6.5 23.4 1
14/08/2019 14:20 17.4 66 778.1 600 0.0 5.9 21.1 353
14/08/2019 14:30 17.6 66 758.0 600 0.0 6.4 23.0 360
14/08/2019 14:40 17.5 63 736.4 600 0.0 5.7 20.7 348
14/08/2019 14:50 17.8 62 714.2 600 0.0 6.2 22.4 331
14/08/2019 15:00 17.7 57 690.9 600 0.0 6.9 24.9 325
14/08/2019 15:10 17.4 61 664.9 600 0.0 6.4 23.1 338
14/08/2019 15:20 17.3 62 639.2 600 0.0 6.8 24.6 333
14/08/2019 15:30 17.2 63 611.8 600 0.0 6.7 24.3 339
14/08/2019 15:40 16.9 59 584.2 600 0.0 6.9 24.9 335
14/08/2019 15:50 16.9 61 555.1 600 0.0 6.8 24.4 333
14/08/2019 16:00 17.0 62 525.5 600 0.0 6.4 23.0 330
14/08/2019 16:10 17.0 63 495.7 600 0.0 6.2 22.2 324
14/08/2019 16:20 16.9 64 463.3 600 0.0 6.0 21.7 325
14/08/2019 16:30 17.0 65 439.6 600 0.0 7.1 25.4 321
14/08/2019 16:40 16.8 68 391.2 600 0.0 6.5 23.4 324
14/08/2019 16:50 16.2 70 203.8 94 0.0 6.9 24.7 330
14/08/2019 17:00 16.2 71 325.9 558 0.0 7.2 25.8 330
14/08/2019 17:10 16.4 70 362.3 600 0.0 7.9 28.3 325
14/08/2019 17:20 16.7 69 287.1 600 0.0 8.4 30.3 322
14/08/2019 17:30 16.0 69 152.4 132 0.0 8.5 30.6 326
14/08/2019 17:40 15.4 71 87.9 0 0.0 7.2 25.8 336
14/08/2019 17:50 15.1 72 88.1 0 0.0 5.9 21.3 336
14/08/2019 18:00 15.1 72 77.4 0 0.0 5.2 18.6 327
14/08/2019 18:10 15.2 71 48.3 0 0.0 5.8 21.0 327
14/08/2019 18:20 15.0 71 26.3 0 0.0 5.1 18.3 320
14/08/2019 18:30 14.9 71 23.5 0 0.0 5.6 20.3 317
14/08/2019 18:40 14.6 75 28.4 0 0.0 4.9 17.6 324
14/08/2019 18:50 14.6 76 20.3 0 0.0 4.8 17.4 318
14/08/2019 19:00 14.5 75 7.4 0 0.0 4.5 16.2 305
14/08/2019 19:10 14.5 74 0.0 0 0.0 4.9 17.7 295
14/08/2019 19:20 14.3 77 0.0 0 0.0 4.7 16.8 288
14/08/2019 19:30 14.1 85 0.0 0 0.0 4.7 17.0 293
14/08/2019 19:40 13.7 92 0.0 0 0.0 4.8 17.4 302
14/08/2019 19:50 13.6 91 0.0 0 0.0 4.6 16.7 312
14/08/2019 20:00 13.4 95 0.0 0 0.0 5.7 20.6 319
14/08/2019 20:10 13.4 94 0.0 0 0.0 5.5 19.8 315
14/08/2019 20:20 13.3 98 0.0 0 0.0 5.0 17.8 320
14/08/2019 20:30 13.2 98 0.0 0 0.0 4.0 14.2 314
14/08/2019 20:40 14.2 99 0.0 0 0.0 6.3 22.5 329
14/08/2019 20:50 14.4 99 0.0 0 0.0 6.8 24.5 331
14/08/2019 21:00 14.2 99 0.0 0 0.0 5.5 19.7 331
14/08/2019 21:10 14.0 99 0.0 0 0.0 3.1 11.2 319
14/08/2019 21:20 13.8 99 0.0 0 0.1 3.0 10.9 291
14/08/2019 21:30 13.9 99 0.0 0 0.0 3.7 13.1 286
14/08/2019 21:40 13.8 99 0.0 0 0.1 4.6 16.5 286
14/08/2019 21:50 13.9 99 0.0 0 0.1 5.5 19.9 296
14/08/2019 22:00 14.0 99 0.0 0 0.1 5.3 19.1 300
14/08/2019 22:10 13.9 99 0.0 0 0.0 5.6 20.2 305
14/08/2019 22:20 13.8 99 0.0 0 0.0 4.9 17.6 304
14/08/2019 22:30 13.8 99 0.0 0 0.1 4.3 15.6 306
14/08/2019 22:40 13.8 99 0.0 0 0.0 4.8 17.4 311
14/08/2019 22:50 13.8 100 0.0 0 0.1 4.4 15.7 306
14/08/2019 23:00 13.9 99 0.0 0 0.1 4.2 15.2 307
14/08/2019 23:10 14.0 100 0.0 0 0.0 3.3 11.8 315
14/08/2019 23:20 14.0 100 0.0 0 0.1 4.3 15.6 314
14/08/2019 23:30 14.1 100 0.0 0 0.0 5.6 20.2 329
14/08/2019 23:40 14.1 100 0.0 0 0.0 5.5 19.7 327
14/08/2019 23:50 14.3 100 0.0 0 0.0 5.9 21.1 329
Anterior Página 1 de 1 Siguiente
Los datos de precipitación registrados en estaciones que están en cumbres son inferiores a lo real, como consecuencia del efecto del viento y de la nieve.


NOTA: Tipo de datos según el color:
   - Valores diarios o 10 minutos correctos
   - Valores diarios calculados a partir de un número de datos 10 minutos menor que 144 y mayor que 120, o de un número de datos semihorarios menor que 48 y mayor que 40 (caso de las estaciones de Riegos de Navarra y del MARM)
   - Valores diez minutos estimados


Contacto        Enlaces        Aviso legal